Time;durP1;ratioP1;P1;durP2;ratioP2;P2;SDS_P1;SDS_P2;PMS_P1;PMS_P2;Temp;Humidity;BMP_temperature;BMP_pressure;BME280_temperature;BME280_humidity;BME280_pressure;Samples;Min_cycle;Max_cycle;Signal;HPM_P1;HPM_P2
2022/06/02 00:00:10;;;;;;;2.10;1.47;;;12.00;99.90;11.50;100699.00;;;;4940909;28;87269;-72
2022/06/02 00:02:54;;;;;;;1.30;1.20;;;11.70;99.90;11.40;100660.00;;;;4957272;28;87902;-70
2022/06/02 00:05:29;;;;;;;1.50;1.40;;;11.50;99.90;11.30;100674.00;;;;4955992;28;117536;-70
2022/06/02 00:08:32;;;;;;;2.83;1.47;;;11.40;99.90;11.30;100672.00;;;;4920377;28;89519;-70
2022/06/02 00:11:48;;;;;;;1.40;1.30;;;11.40;99.90;11.30;100678.00;;;;4970550;28;103607;-70
2022/06/02 00:14:40;;;;;;;2.50;1.67;;;11.30;99.90;11.20;100671.00;;;;4971359;28;87714;-69
2022/06/02 00:17:26;;;;;;;2.93;1.83;;;11.30;99.90;11.10;100669.00;;;;4957413;28;88129;-69
2022/06/02 00:20:26;;;;;;;2.17;1.73;;;11.20;99.90;11.10;100673.00;;;;4938230;28;87952;-70
2022/06/02 00:23:26;;;;;;;2.93;2.63;;;11.10;99.90;11.00;100685.00;;;;4956872;28;87872;-71
2022/06/02 00:26:24;;;;;;;2.03;1.83;;;11.10;99.90;11.00;100704.00;;;;4934208;28;100808;-71
2022/06/02 00:29:17;;;;;;;3.07;2.30;;;11.00;99.90;10.90;100692.00;;;;4931458;28;87434;-69
2022/06/02 00:31:59;;;;;;;2.30;2.00;;;11.00;99.90;10.90;100697.00;;;;4968163;28;87803;-70
2022/06/02 00:34:38;;;;;;;1.67;1.57;;;10.90;99.90;10.90;100697.00;;;;4970212;28;101760;-70
2022/06/02 00:37:19;;;;;;;1.97;1.77;;;10.90;99.90;10.80;100700.00;;;;4938071;28;88555;-70
2022/06/02 00:39:47;;;;;;;2.07;1.87;;;10.90;99.90;10.80;100723.00;;;;4955960;28;88587;-70
2022/06/02 00:42:24;;;;;;;2.30;1.30;;;10.80;99.90;10.80;100709.00;;;;4955148;28;87992;-69
2022/06/02 00:45:07;;;;;;;2.33;1.63;;;10.90;99.90;10.80;100707.00;;;;4956220;28;87804;-69
2022/06/02 00:47:41;;;;;;;3.30;2.07;;;10.80;99.90;10.80;100718.00;;;;4938504;28;87872;-71
2022/06/02 00:50:10;;;;;;;1.80;1.67;;;10.80;99.90;10.80;100711.00;;;;4944735;28;92740;-70
2022/06/02 00:53:05;;;;;;;2.37;1.57;;;10.80;99.90;10.80;100720.00;;;;4955361;28;87658;-70
2022/06/02 00:59:52;;;;;;;2.17;1.97;;;10.90;99.90;10.80;100712.00;;;;4967575;28;87868;-73
2022/06/02 01:02:18;;;;;;;2.60;2.27;;;10.90;99.90;10.80;100738.00;;;;4937573;28;88020;-70
2022/06/02 01:04:44;;;;;;;3.80;1.97;;;10.80;99.90;10.80;100735.00;;;;4935724;28;118549;-70
2022/06/02 01:07:38;;;;;;;2.63;1.83;;;10.80;99.90;10.80;100730.00;;;;4970905;28;88080;-70
2022/06/02 01:10:32;;;;;;;1.13;1.00;;;10.80;99.90;10.80;100733.00;;;;4955454;28;91977;-69
2022/06/02 01:13:24;;;;;;;1.70;1.53;;;10.80;99.90;10.80;100758.00;;;;4955392;28;87706;-70
2022/06/02 01:16:09;;;;;;;1.83;1.60;;;10.80;99.90;10.70;100753.00;;;;4963938;28;102864;-70
2022/06/02 01:18:52;;;;;;;1.90;1.63;;;10.80;99.90;10.70;100754.00;;;;4970039;28;100253;-71
2022/06/02 01:22:17;;;;;;;2.53;2.30;;;10.80;99.90;10.70;100748.00;;;;4936656;28;87859;-73
2022/06/02 01:24:57;;;;;;;2.07;1.73;;;10.80;99.90;10.70;100753.00;;;;4937379;28;87303;-72
2022/06/02 01:28:22;;;;;;;2.10;1.90;;;10.70;99.90;10.60;100748.00;;;;4954678;28;98173;-72
2022/06/02 01:31:48;;;;;;;1.83;1.73;;;10.70;99.90;10.60;100750.00;;;;4954347;28;87879;-72
2022/06/02 01:34:23;;;;;;;1.37;1.27;;;10.70;99.90;10.60;100752.00;;;;4936021;28;88783;-71
2022/06/02 01:36:58;;;;;;;1.43;1.33;;;10.60;99.90;10.60;100748.00;;;;4956034;28;87530;-70
2022/06/02 01:40:03;;;;;;;2.27;1.77;;;10.60;99.90;10.50;100742.00;;;;4954965;28;88122;-71
2022/06/02 01:42:50;;;;;;;2.87;1.70;;;10.60;99.90;10.40;100743.00;;;;4920436;28;87678;-70
2022/06/02 01:45:46;;;;;;;2.53;2.33;;;10.50;99.90;10.30;100749.00;;;;4969184;28;92652;-70
2022/06/02 01:48:21;;;;;;;1.73;1.63;;;10.40;99.90;10.30;100746.00;;;;4953425;28;89949;-71
2022/06/02 01:51:12;;;;;;;3.50;2.17;;;10.40;99.90;10.20;100742.00;;;;4923044;28;88134;-71
2022/06/02 01:53:56;;;;;;;2.47;2.20;;;10.30;99.90;10.10;100731.00;;;;4935366;28;92196;-70
2022/06/02 01:56:49;;;;;;;2.37;2.07;;;10.20;99.90;10.00;100734.00;;;;4933488;28;95187;-71
2022/06/02 01:59:30;;;;;;;2.67;1.87;;;10.10;99.90;10.00;100743.00;;;;4954052;28;87772;-71
2022/06/02 02:02:26;;;;;;;1.70;1.60;;;10.10;99.90;9.90;100751.00;;;;4934353;28;100821;-71
2022/06/02 02:05:18;;;;;;;2.00;1.80;;;10.00;99.90;9.80;100756.00;;;;4956401;28;89396;-72
2022/06/02 02:08:09;;;;;;;1.67;1.57;;;9.90;99.90;9.70;100751.00;;;;4968608;28;97913;-71
2022/06/02 02:11:27;;;;;;;2.90;1.97;;;9.90;99.90;9.60;100753.00;;;;4954407;28;88006;-72
2022/06/02 02:14:20;;;;;;;2.57;1.80;;;9.80;99.90;9.60;100751.00;;;;4954557;28;87766;-71
2022/06/02 02:17:21;;;;;;;2.33;2.13;;;9.70;99.90;9.60;100759.00;;;;4969644;28;87855;-71
2022/06/02 02:20:16;;;;;;;2.37;2.07;;;9.70;99.90;9.60;100754.00;;;;4954567;28;87844;-71
2022/06/02 02:23:23;;;;;;;2.73;2.30;;;9.70;99.90;9.50;100754.00;;;;4936183;28;107668;-71
2022/06/02 02:26:13;;;;;;;3.27;2.30;;;9.60;99.90;9.50;100760.00;;;;4912323;28;99564;-71
2022/06/02 02:29:11;;;;;;;2.77;2.40;;;9.60;99.90;9.40;100758.00;;;;4945646;28;101455;-71
2022/06/02 02:32:14;;;;;;;2.37;2.07;;;9.50;99.90;9.40;100757.00;;;;4904971;28;88755;-71
2022/06/02 02:35:13;;;;;;;2.97;2.67;;;9.50;99.90;9.30;100764.00;;;;4930634;28;89960;-70
2022/06/02 02:37:49;;;;;;;3.63;2.23;;;9.40;99.90;9.30;100765.00;;;;4902043;28;90116;-71
2022/06/02 02:40:45;;;;;;;3.07;2.70;;;9.30;99.90;9.20;100764.00;;;;4916443;28;87998;-70
2022/06/02 02:43:24;;;;;;;3.33;2.53;;;9.30;99.90;9.20;100763.00;;;;4951969;28;89118;-70
2022/06/02 02:46:22;;;;;;;2.63;2.43;;;9.30;99.90;9.10;100760.00;;;;4942410;28;89560;-71
2022/06/02 02:49:19;;;;;;;3.90;2.80;;;9.20;99.90;9.10;100776.00;;;;4949184;28;88389;-71
2022/06/02 02:52:17;;;;;;;2.90;2.70;;;9.20;99.90;9.00;100771.00;;;;4913594;28;87199;-71
2022/06/02 02:54:55;;;;;;;2.53;2.33;;;9.20;99.90;9.00;100777.00;;;;4919850;28;100295;-70
2022/06/02 02:57:41;;;;;;;3.87;2.70;;;9.10;99.90;9.00;100781.00;;;;4934252;28;88081;-71
2022/06/02 03:00:18;;;;;;;3.93;2.80;;;9.10;99.90;9.00;100783.00;;;;4947862;28;88655;-71
2022/06/02 03:02:58;;;;;;;5.27;2.90;;;9.00;99.90;8.90;100791.00;;;;4916199;28;87824;-71
2022/06/02 03:05:51;;;;;;;3.10;2.43;;;9.00;99.90;8.90;100791.00;;;;4928211;28;87927;-71
2022/06/02 03:08:58;;;;;;;4.00;3.37;;;9.00;99.90;8.90;100790.00;;;;4952446;28;88381;-71
2022/06/02 03:11:49;;;;;;;3.57;3.27;;;9.00;99.90;8.90;100795.00;;;;4921501;28;109160;-71
2022/06/02 03:14:32;;;;;;;3.97;2.73;;;8.90;99.90;8.90;100795.00;;;;4966541;28;88128;-71
2022/06/02 03:17:36;;;;;;;3.37;2.90;;;8.90;99.90;8.80;100797.00;;;;4938459;28;88058;-71
2022/06/02 03:20:21;;;;;;;3.30;2.83;;;8.90;99.90;8.80;100797.00;;;;4938035;28;86940;-70
2022/06/02 03:23:21;;;;;;;3.63;3.33;;;8.90;99.90;8.80;100797.00;;;;4951517;28;93452;-71
2022/06/02 03:26:06;;;;;;;6.10;3.47;;;8.90;99.90;8.80;100803.00;;;;4916634;28;87729;-71
2022/06/02 03:29:01;;;;;;;2.93;2.57;;;8.90;99.90;8.80;100810.00;;;;4964926;28;101868;-72
2022/06/02 03:31:49;;;;;;;4.63;3.37;;;8.60;99.90;8.80;100811.00;;;;4928443;28;88891;-71
2022/06/02 03:34:32;;;;;;;5.03;3.90;;;8.80;99.90;8.80;100815.00;;;;4957020;28;88888;-72
2022/06/02 03:37:44;;;;;;;6.07;3.10;;;8.90;99.90;8.80;100821.00;;;;4938587;28;93382;-73
2022/06/02 03:40:47;;;;;;;5.20;3.93;;;8.90;99.90;8.80;100823.00;;;;4907403;28;89515;-72
2022/06/02 03:43:31;;;;;;;3.70;3.10;;;8.90;99.90;8.90;100821.00;;;;4956632;28;87752;-72
2022/06/02 03:46:21;;;;;;;4.50;3.77;;;8.90;99.90;8.90;100824.00;;;;4938145;28;109111;-74
2022/06/02 03:49:23;;;;;;;3.97;3.23;;;8.90;99.90;8.90;100820.00;;;;4962479;28;87134;-73
2022/06/02 03:52:18;;;;;;;4.77;4.17;;;9.30;99.90;9.00;100830.00;;;;4951190;28;101233;-73
2022/06/02 03:55:01;;;;;;;4.07;3.67;;;9.00;99.90;9.00;100844.00;;;;4901040;28;119429;-73
2022/06/02 03:58:16;;;;;;;4.63;4.13;;;9.10;99.90;9.10;100835.00;;;;4955483;28;95393;-73
2022/06/02 04:00:51;;;;;;;5.93;4.40;;;9.10;99.90;9.10;100839.00;;;;4956424;28;87971;-74
2022/06/02 04:04:00;;;;;;;5.60;4.77;;;9.20;99.90;9.20;100852.00;;;;4937988;28;87629;-72
2022/06/02 04:07:06;;;;;;;5.67;4.47;;;9.20;99.90;9.30;100846.00;;;;4970485;28;88128;-71
2022/06/02 04:10:38;;;;;;;7.53;5.00;;;9.30;99.90;9.40;100839.00;;;;4935331;28;89859;-70
2022/06/02 04:13:38;;;;;;;7.07;6.00;;;9.40;99.90;9.50;100854.00;;;;4923628;28;87989;-71
2022/06/02 04:16:15;;;;;;;6.63;5.93;;;9.50;99.90;9.60;100860.00;;;;4922352;28;87686;-70
2022/06/02 04:22:20;;;;;;;6.87;5.27;;;9.70;99.90;9.80;100855.00;;;;4961331;28;87959;-69
2022/06/02 04:25:17;;;;;;;10.67;6.37;;;9.80;99.90;9.80;100865.00;;;;4958612;28;87995;-71
2022/06/02 04:28:04;;;;;;;5.37;4.83;;;10.00;99.90;9.90;100874.00;;;;4964751;28;88571;-69
2022/06/02 04:31:25;;;;;;;4.80;4.40;;;9.90;99.90;10.00;100872.00;;;;4966738;28;88964;-68
2022/06/02 04:34:21;;;;;;;6.90;4.47;;;10.00;99.90;10.10;100871.00;;;;4959551;28;88255;-68
2022/06/02 04:37:17;;;;;;;6.17;5.37;;;10.10;99.90;10.20;100881.00;;;;4981275;28;87946;-68
2022/06/02 04:40:17;;;;;;;6.03;4.13;;;10.20;99.90;10.20;100880.00;;;;4957684;28;88024;-68
2022/06/02 04:42:58;;;;;;;6.03;4.47;;;10.30;99.90;10.40;100880.00;;;;4969044;28;88036;-68
2022/06/02 04:46:10;;;;;;;7.40;4.77;;;10.40;99.90;10.50;100894.00;;;;4949764;28;88153;-67
2022/06/02 04:49:40;;;;;;;6.93;5.60;;;10.50;99.90;10.60;100902.00;;;;4950889;28;87571;-66
2022/06/02 04:52:26;;;;;;;6.77;4.67;;;10.60;99.90;10.70;100903.00;;;;4966057;28;87677;-69
2022/06/02 04:55:22;;;;;;;6.07;5.33;;;10.70;99.90;10.80;100907.00;;;;4957815;28;88233;-68
2022/06/02 04:57:58;;;;;;;7.77;5.63;;;10.80;99.90;11.00;100896.00;;;;4957194;28;88688;-66
2022/06/02 05:01:07;;;;;;;7.23;4.93;;;11.00;99.90;11.10;100906.00;;;;4953405;28;89877;-67
2022/06/02 05:04:20;;;;;;;8.70;5.23;;;11.10;99.90;11.20;100914.00;;;;4960313;28;87921;-69
2022/06/02 05:07:06;;;;;;;6.83;5.20;;;11.40;99.90;11.30;100913.00;;;;4932840;28;90218;-68
2022/06/02 05:09:37;;;;;;;5.43;4.33;;;11.30;99.90;11.50;100912.00;;;;4954495;28;110803;-68
2022/06/02 05:12:18;;;;;;;7.43;4.83;;;11.40;99.90;11.60;100918.00;;;;4966116;28;101445;-69
2022/06/02 05:15:07;;;;;;;5.90;4.40;;;11.60;99.90;11.80;100924.00;;;;4953855;28;87836;-68
2022/06/02 05:17:36;;;;;;;6.73;5.03;;;11.70;99.90;11.90;100922.00;;;;4956452;28;87468;-67
2022/06/02 05:20:31;;;;;;;4.17;3.23;;;11.90;99.90;12.00;100925.00;;;;4955477;28;87506;-69
2022/06/02 05:23:41;;;;;;;4.07;3.67;;;12.00;99.90;12.10;100930.00;;;;4955710;28;87910;-69
2022/06/02 05:26:53;;;;;;;6.40;3.53;;;12.10;99.90;12.30;100937.00;;;;4952086;28;88539;-70
2022/06/02 05:29:37;;;;;;;4.47;4.03;;;12.30;99.90;12.40;100942.00;;;;4955660;28;87906;-70
2022/06/02 05:33:01;;;;;;;4.17;3.50;;;12.40;99.90;12.60;100927.00;;;;4936045;28;107038;-70
2022/06/02 05:35:44;;;;;;;3.60;3.30;;;12.50;99.90;12.80;100932.00;;;;4955744;28;93477;-70
2022/06/02 05:38:55;;;;;;;4.23;3.10;;;12.80;99.90;13.00;100938.00;;;;4955549;28;88202;-69
2022/06/02 05:41:44;;;;;;;3.67;2.43;;;12.90;99.90;13.10;100938.00;;;;4918565;28;87661;-69
2022/06/02 05:44:43;;;;;;;3.60;2.93;;;13.00;99.90;13.20;100937.00;;;;4953310;28;109727;-67
2022/06/02 05:47:35;;;;;;;4.17;2.60;;;13.20;99.90;13.30;100946.00;;;;4937253;28;103064;-68
2022/06/02 05:50:29;;;;;;;4.47;3.40;;;13.30;99.90;13.40;100940.00;;;;4960723;28;88127;-69
2022/06/02 05:53:27;;;;;;;3.00;2.50;;;13.40;99.90;13.60;100940.00;;;;4936617;28;87839;-68
2022/06/02 05:56:09;;;;;;;4.00;3.47;;;13.50;99.90;13.70;100944.00;;;;4955318;28;89123;-69
2022/06/02 05:59:10;;;;;;;3.30;2.50;;;13.60;99.90;13.90;100946.00;;;;4936738;28;87818;-68
2022/06/02 06:02:22;;;;;;;3.13;2.43;;;13.80;99.90;14.00;100946.00;;;;4954915;28;87828;-68
2022/06/02 06:05:13;;;;;;;3.10;2.50;;;14.00;99.90;14.20;100950.00;;;;4903835;28;94627;-69
2022/06/02 06:08:17;;;;;;;2.50;2.30;;;14.10;99.90;14.40;100948.00;;;;4892741;28;87804;-69
2022/06/02 06:11:12;;;;;;;2.17;1.97;;;14.30;99.90;14.60;100954.00;;;;4945623;28;87921;-68
2022/06/02 06:14:29;;;;;;;2.00;1.60;;;14.50;99.90;14.80;100956.00;;;;4968374;28;101727;-68
2022/06/02 06:17:36;;;;;;;4.63;2.10;;;14.80;99.90;15.00;100962.00;;;;4953031;28;87333;-68
2022/06/02 06:20:42;;;;;;;1.93;1.53;;;14.90;99.90;15.20;100965.00;;;;4946515;28;87924;-68
2022/06/02 06:23:45;;;;;;;2.40;1.93;;;15.10;99.90;15.40;100966.00;;;;4954791;28;88188;-68
2022/06/02 06:26:54;;;;;;;1.67;1.48;;;15.40;99.90;15.60;100972.00;;;;4968649;28;96034;-67
2022/06/02 06:29:44;;;;;;;1.20;1.10;;;15.60;99.90;15.80;100960.00;;;;4941570;28;89390;-67
2022/06/02 06:32:26;;;;;;;1.40;1.30;;;15.70;99.90;16.00;100974.00;;;;4954340;28;87931;-67
2022/06/02 06:35:40;;;;;;;2.58;1.95;;;15.90;99.90;16.00;100974.00;;;;4955366;28;88755;-67
2022/06/02 06:38:12;;;;;;;1.80;1.45;;;16.00;99.90;16.10;100992.00;;;;4954992;28;87673;-68
2022/06/02 06:41:18;;;;;;;1.88;1.40;;;16.10;99.90;16.30;100981.00;;;;4957819;28;109455;-68
2022/06/02 06:44:16;;;;;;;1.75;1.65;;;16.20;99.90;16.50;100993.00;;;;4939249;28;89364;-68
2022/06/02 06:47:00;;;;;;;1.13;1.02;;;16.40;99.90;16.70;100994.00;;;;4938690;28;102415;-68
2022/06/02 06:49:56;;;;;;;1.45;1.35;;;16.60;99.90;16.80;100987.00;;;;4936878;28;88120;-67
2022/06/02 06:52:50;;;;;;;2.53;1.27;;;16.70;99.90;16.90;100999.00;;;;4957547;28;88815;-69
2022/06/02 06:55:36;;;;;;;2.22;1.52;;;16.90;99.90;17.00;101004.00;;;;4957299;28;97880;-69
2022/06/02 06:59:03;;;;;;;2.20;1.75;;;16.90;99.90;17.00;101009.00;;;;4972718;28;87779;-68
2022/06/02 07:01:49;;;;;;;1.88;1.42;;;17.00;99.90;17.10;101007.00;;;;4930926;28;87828;-69
2022/06/02 07:05:07;;;;;;;1.73;1.45;;;17.10;99.90;17.00;101002.00;;;;4896380;28;88268;-69
2022/06/02 07:08:16;;;;;;;1.15;1.10;;;17.00;99.40;17.10;101006.00;;;;4869412;28;88229;-69
2022/06/02 07:14:51;;;;;;;3.97;1.55;;;17.10;97.00;17.10;101018.00;;;;4898491;28;88117;-69
2022/06/02 07:17:52;;;;;;;1.65;1.05;;;17.10;96.30;17.10;101011.00;;;;4913499;28;90553;-69
2022/06/02 07:20:33;;;;;;;1.83;1.70;;;17.10;96.40;17.30;101001.00;;;;4936915;28;87661;-69
2022/06/02 07:23:17;;;;;;;1.67;1.40;;;17.20;95.10;17.20;101022.00;;;;4918585;28;105171;-69
2022/06/02 07:26:11;;;;;;;1.38;1.27;;;17.20;93.00;17.10;101014.00;;;;4965618;28;88950;-69
2022/06/02 07:29:18;;;;;;;0.85;0.73;;;17.10;93.50;17.20;101015.00;;;;4934599;28;108660;-68
2022/06/02 07:32:23;;;;;;;2.33;1.25;;;17.20;94.10;17.30;101015.00;;;;4937598;28;88977;-69
2022/06/02 07:35:45;;;;;;;1.25;1.15;;;17.20;92.40;17.30;101025.00;;;;4938620;28;96944;-67
2022/06/02 07:38:25;;;;;;;0.80;0.80;;;17.30;91.90;17.40;101023.00;;;;4951855;28;87557;-69
2022/06/02 07:41:16;;;;;;;1.00;0.90;;;17.30;91.30;17.50;101034.00;;;;4931981;28;110359;-69
2022/06/02 07:43:57;;;;;;;1.38;1.10;;;17.40;91.30;17.70;101038.00;;;;4937218;28;87956;-69
2022/06/02 07:46:59;;;;;;;1.40;0.82;;;17.60;90.20;17.60;101043.00;;;;4938569;28;87068;-67
2022/06/02 07:49:55;;;;;;;0.80;0.80;;;17.60;90.00;17.80;101050.00;;;;4918315;28;87775;-68
2022/06/02 07:52:53;;;;;;;1.45;1.27;;;17.70;90.40;18.00;101043.00;;;;4951490;28;91544;-67
2022/06/02 07:56:17;;;;;;;0.85;0.85;;;17.90;88.80;18.20;101043.00;;;;4950740;28;109697;-69
2022/06/02 07:59:41;;;;;;;1.50;1.00;;;18.00;88.00;18.40;101043.00;;;;4927064;28;87808;-67
2022/06/02 08:02:54;;;;;;;1.77;1.42;;;18.30;86.20;18.60;101050.00;;;;4918149;28;87847;-68
2022/06/02 08:05:54;;;;;;;0.93;0.93;;;18.10;85.00;18.70;101057.00;;;;4910932;28;89678;-67
2022/06/02 08:08:29;;;;;;;1.27;1.17;;;18.60;82.80;18.90;101053.00;;;;4936820;28;87860;-67
2022/06/02 08:11:27;;;;;;;2.92;1.77;;;18.70;80.70;18.90;101049.00;;;;4935011;28;88047;-66
2022/06/02 08:14:29;;;;;;;2.13;1.38;;;18.80;77.30;18.80;101049.00;;;;4923233;28;99190;-67
2022/06/02 08:17:20;;;;;;;1.17;1.08;;;18.80;77.10;18.90;101057.00;;;;4937478;28;87259;-68
2022/06/02 08:20:33;;;;;;;1.58;1.13;;;18.80;77.70;19.10;101052.00;;;;4951238;28;88120;-68
2022/06/02 08:23:24;;;;;;;1.42;1.08;;;19.00;76.60;19.30;101054.00;;;;4917733;28;104533;-68
2022/06/02 08:26:09;;;;;;;1.42;1.20;;;19.20;75.20;19.50;101046.00;;;;4936445;28;89985;-68
2022/06/02 08:29:13;;;;;;;5.70;1.15;;;19.30;76.00;19.60;101053.00;;;;4966378;28;104607;-68
2022/06/02 08:32:22;;;;;;;1.50;1.40;;;19.50;73.70;19.60;101057.00;;;;4951000;28;104946;-68
2022/06/02 08:35:16;;;;;;;2.17;1.70;;;19.50;69.90;19.40;101060.00;;;;4927755;28;87943;-67
2022/06/02 08:38:33;;;;;;;2.33;1.52;;;19.40;69.30;19.40;101062.00;;;;4923012;28;88011;-67
2022/06/02 08:41:51;;;;;;;2.53;1.20;;;19.30;68.50;19.20;101072.00;;;;4936827;28;88137;-68
2022/06/02 08:44:53;;;;;;;2.05;1.35;;;19.20;67.90;19.20;101071.00;;;;4935964;28;87808;-67
2022/06/02 08:47:57;;;;;;;2.35;1.73;;;19.10;68.40;19.40;101072.00;;;;4957374;28;87261;-68
2022/06/02 08:50:30;;;;;;;4.05;1.77;;;19.20;68.00;19.50;101067.00;;;;4966468;28;102663;-67
2022/06/02 08:53:52;;;;;;;1.90;1.80;;;19.30;66.80;19.50;101068.00;;;;4935752;28;89213;-67
2022/06/02 08:57:05;;;;;;;2.25;1.55;;;19.40;66.90;19.90;101067.00;;;;4950896;28;88814;-67
2022/06/02 08:59:59;;;;;;;2.00;1.67;;;19.70;67.80;20.20;101072.00;;;;4936066;28;87551;-67
2022/06/02 09:02:49;;;;;;;1.88;1.30;;;19.90;67.20;20.60;101075.00;;;;4935804;28;87715;-67
2022/06/02 09:05:34;;;;;;;1.17;1.08;;;20.30;66.50;20.90;101073.00;;;;4936785;28;87974;-67
2022/06/02 09:09:03;;;;;;;1.67;1.38;;;20.60;64.80;21.10;101079.00;;;;4935976;28;87654;-68
2022/06/02 09:12:02;;;;;;;1.58;1.08;;;20.80;63.20;21.10;101072.00;;;;4936533;28;88028;-67
2022/06/02 09:14:57;;;;;;;2.53;2.00;;;20.90;60.30;20.90;101071.00;;;;4904290;28;88931;-68
2022/06/02 09:18:12;;;;;;;2.85;1.98;;;20.80;58.30;20.60;101082.00;;;;4954764;28;108650;-67
2022/06/02 09:20:58;;;;;;;1.70;1.60;;;20.60;59.00;20.40;101089.00;;;;4935918;28;87838;-67
2022/06/02 09:24:01;;;;;;;1.90;1.65;;;20.40;59.50;20.10;101093.00;;;;4935689;28;101688;-67
2022/06/02 09:27:18;;;;;;;2.42;1.40;;;20.20;60.00;20.20;101099.00;;;;4945205;28;95709;-67
2022/06/02 09:29:59;;;;;;;2.05;1.40;;;20.10;61.10;20.40;101102.00;;;;4955404;28;88091;-68
2022/06/02 09:36:50;;;;;;;1.73;1.17;;;20.30;60.50;20.30;101096.00;;;;4912289;28;87982;-68
2022/06/02 09:39:45;;;;;;;2.03;1.25;;;20.20;57.30;20.00;101108.00;;;;4912895;28;88000;-68
2022/06/02 09:43:05;;;;;;;1.00;0.90;;;20.00;58.10;19.80;101123.00;;;;4892795;28;107187;-67
2022/06/02 09:45:45;;;;;;;1.63;1.10;;;19.80;57.90;19.60;101119.00;;;;4953331;28;88013;-67
2022/06/02 09:48:41;;;;;;;1.08;0.90;;;19.60;58.70;19.90;101108.00;;;;4954874;28;87213;-68
2022/06/02 09:51:43;;;;;;;1.20;0.90;;;19.60;59.20;20.50;101111.00;;;;4956100;28;87684;-70
2022/06/02 09:54:23;;;;;;;0.80;0.75;;;20.00;59.40;20.90;101108.00;;;;4951436;28;112530;-70
2022/06/02 09:57:55;;;;;;;0.88;0.60;;;20.50;59.10;21.10;101115.00;;;;4934693;28;89036;-72
2022/06/02 10:00:11;;;;;;;1.83;0.70;;;20.80;57.90;21.00;101119.00;;;;4967212;28;87783;-71
2022/06/02 10:07:26;;;;;;;0.65;0.65;;;20.60;55.50;20.60;101116.00;;;;4923716;28;87906;-71
2022/06/02 10:10:22;;;;;;;0.75;0.68;;;20.50;55.50;20.50;101116.00;;;;4918759;28;88951;-69
2022/06/02 10:13:23;;;;;;;0.70;0.70;;;20.30;55.40;20.30;101116.00;;;;4969244;28;87859;-70
2022/06/02 10:16:20;;;;;;;1.33;1.10;;;20.20;55.40;20.40;101111.00;;;;4952481;28;102493;-72
2022/06/02 10:19:24;;;;;;;2.00;0.68;;;20.20;55.20;20.70;101106.00;;;;4954808;28;87238;-74
2022/06/02 10:22:23;;;;;;;0.60;0.40;;;20.30;55.70;20.90;101111.00;;;;4968706;28;107775;-70
2022/06/02 10:25:22;;;;;;;0.88;0.60;;;20.60;55.30;21.10;101099.00;;;;4969342;28;87838;-71
2022/06/02 10:28:54;;;;;;;0.73;0.60;;;20.70;54.20;21.10;101101.00;;;;4932430;28;89041;-72
2022/06/02 10:31:49;;;;;;;0.98;0.80;;;20.80;54.80;21.30;101102.00;;;;4915912;28;87694;-72
2022/06/02 10:34:49;;;;;;;1.58;0.52;;;20.90;53.50;21.40;101095.00;;;;4934637;28;87894;-71
2022/06/02 10:37:54;;;;;;;0.75;0.73;;;21.00;53.70;21.50;101105.00;;;;4934505;28;87760;-71
2022/06/02 10:41:01;;;;;;;0.60;0.60;;;21.10;52.90;21.30;101100.00;;;;4935175;28;87766;-70
2022/06/02 10:43:43;;;;;;;0.70;0.60;;;21.10;52.80;21.50;101095.00;;;;4934226;28;87935;-73
2022/06/02 10:46:45;;;;;;;1.15;0.70;;;21.10;53.30;21.90;101102.00;;;;4934651;28;87827;-70
2022/06/02 10:49:30;;;;;;;1.17;0.70;;;21.40;52.60;22.20;101090.00;;;;4930465;28;104229;-72
2022/06/02 10:52:30;;;;;;;0.95;0.55;;;21.70;51.40;22.60;101096.00;;;;4947940;28;88025;-73
2022/06/02 10:55:48;;;;;;;1.23;0.60;;;22.10;51.10;22.80;101092.00;;;;4917175;28;88174;-70
2022/06/02 10:58:54;;;;;;;0.35;0.35;;;22.30;51.00;22.70;101092.00;;;;4889989;28;89085;-72
2022/06/02 11:02:12;;;;;;;0.40;0.30;;;22.40;49.70;22.40;101100.00;;;;4925926;28;87846;-70
2022/06/02 11:05:27;;;;;;;0.40;0.40;;;22.20;49.80;22.10;101105.00;;;;4934864;28;87797;-72
2022/06/02 11:08:56;;;;;;;0.85;0.60;;;21.90;50.10;22.50;101105.00;;;;4921413;28;88267;-71
2022/06/02 11:12:08;;;;;;;1.13;0.68;;;22.10;50.60;23.00;101103.00;;;;4934029;28;88096;-72
2022/06/02 11:15:06;;;;;;;0.63;0.50;;;22.50;49.90;23.10;101100.00;;;;4948143;28;87885;-72
2022/06/02 11:17:40;;;;;;;1.40;0.90;;;22.70;48.50;23.20;101119.00;;;;4933835;28;87919;-70
2022/06/02 11:20:40;;;;;;;0.85;0.80;;;22.80;48.00;23.50;101104.00;;;;4935022;28;87580;-70
2022/06/02 11:23:45;;;;;;;0.93;0.63;;;23.00;48.40;24.20;101099.00;;;;4937146;28;87880;-72
2022/06/02 11:26:47;;;;;;;0.65;0.50;;;23.50;48.60;24.70;101096.00;;;;4917833;28;87704;-73
2022/06/02 11:29:40;;;;;;;0.73;0.70;;;24.10;46.00;24.80;101110.00;;;;4953797;28;93325;-71
2022/06/02 11:32:51;;;;;;;0.50;0.50;;;24.30;45.70;25.10;101107.00;;;;4972024;28;88247;-73
2022/06/02 11:36:05;;;;;;;0.63;0.50;;;24.50;46.30;25.50;101102.00;;;;4971191;28;102938;-73
2022/06/02 11:38:58;;;;;;;0.40;0.40;;;24.90;45.80;25.90;101102.00;;;;4971177;28;88563;-72
2022/06/02 11:41:38;;;;;;;2.95;0.52;;;25.40;44.70;25.90;101112.00;;;;4939318;28;87928;-73
2022/06/02 11:44:13;;;;;;;0.80;0.47;;;25.40;43.40;26.00;101104.00;;;;4954312;28;90215;-71
2022/06/02 11:47:23;;;;;;;0.98;0.45;;;25.50;44.30;26.30;101107.00;;;;4971798;28;87994;-71
2022/06/02 11:50:28;;;;;;;1.10;0.90;;;25.80;43.20;26.00;101116.00;;;;4971803;28;87095;-71
2022/06/02 11:53:18;;;;;;;0.75;0.52;;;25.70;41.70;25.80;101102.00;;;;4952557;28;87764;-73
2022/06/02 11:56:00;;;;;;;0.90;0.57;;;25.40;41.40;25.70;101104.00;;;;4956780;28;87776;-71
2022/06/02 11:58:51;;;;;;;0.40;0.40;;;25.40;41.50;25.40;101108.00;;;;4970745;28;88769;-71
2022/06/02 12:01:41;;;;;;;3.47;0.50;;;25.10;41.50;24.90;101114.00;;;;4937708;28;87877;-72
2022/06/02 12:04:37;;;;;;;1.15;0.60;;;24.80;41.70;24.60;101110.00;;;;4953152;28;87596;-71
2022/06/02 12:07:20;;;;;;;1.05;0.70;;;24.40;42.70;24.60;101123.00;;;;4922010;28;89618;-71
2022/06/02 12:10:27;;;;;;;1.55;1.00;;;24.30;43.80;24.30;101119.00;;;;4937930;28;87893;-72
2022/06/02 12:13:24;;;;;;;0.40;0.40;;;24.10;43.00;24.40;101116.00;;;;4951571;28;87941;-73
2022/06/02 12:16:13;;;;;;;3.05;0.50;;;24.00;43.40;24.40;101111.00;;;;4935182;28;87895;-72
2022/06/02 12:18:53;;;;;;;0.68;0.68;;;24.10;43.30;24.30;101127.00;;;;4971139;28;88934;-72
2022/06/02 12:21:56;;;;;;;0.40;0.40;;;24.00;43.20;24.00;101126.00;;;;4924254;28;88679;-73
2022/06/02 12:24:45;;;;;;;0.45;0.45;;;23.80;43.30;24.20;101122.00;;;;4956796;28;87999;-72
2022/06/02 12:27:40;;;;;;;0.90;0.90;;;23.80;44.30;24.70;101125.00;;;;4955883;28;89243;-73
2022/06/02 12:30:37;;;;;;;0.95;0.80;;;24.10;44.60;25.10;101125.00;;;;4957695;28;90215;-71
2022/06/02 12:33:28;;;;;;;2.08;0.63;;;24.60;43.60;25.10;101124.00;;;;4953806;28;89489;-73
2022/06/02 12:36:16;;;;;;;0.60;0.50;;;24.70;42.80;25.20;101119.00;;;;4954058;28;95934;-70
2022/06/02 12:39:16;;;;;;;0.63;0.57;;;24.70;42.20;25.20;101121.00;;;;4936806;28;96914;-73
2022/06/02 12:42:42;;;;;;;0.65;0.65;;;24.70;42.70;25.00;101126.00;;;;4969601;28;110236;-74
2022/06/02 12:45:20;;;;;;;0.60;0.60;;;24.70;43.00;24.70;101134.00;;;;4955647;28;87573;-71
2022/06/02 12:48:28;;;;;;;0.40;0.40;;;24.50;42.90;24.60;101125.00;;;;4956083;28;87063;-73
2022/06/02 12:51:17;;;;;;;0.52;0.40;;;24.30;43.20;24.30;101130.00;;;;4955928;28;87781;-75
2022/06/02 12:54:37;;;;;;;0.47;0.40;;;24.10;42.80;23.90;101134.00;;;;4955835;28;87916;-73
2022/06/02 12:57:53;;;;;;;0.30;0.30;;;23.80;43.30;24.10;101136.00;;;;4955489;28;88920;-76
2022/06/02 13:00:45;;;;;;;1.98;0.85;;;23.70;43.80;24.30;101130.00;;;;4967540;28;87913;-73
2022/06/02 13:03:22;;;;;;;1.70;0.60;;;23.80;43.50;24.80;101128.00;;;;4936422;28;88007;-75
2022/06/02 13:06:52;;;;;;;0.75;0.40;;;24.20;43.40;25.20;101132.00;;;;4920993;28;103397;-73
2022/06/02 13:10:12;;;;;;;0.82;0.65;;;24.60;42.70;25.50;101122.00;;;;4923686;28;87842;-72
2022/06/02 13:13:20;;;;;;;1.08;0.47;;;24.90;41.90;25.40;101124.00;;;;4955277;28;87630;-76